KBAD

Barksdale AFB Airport

Bossier City, Louisiana, USA
TAF AMD KBAD 221826Z 2218/2324 33009KT 9999 FEW140 QNH2979INS BECMG 2220/2221 30009KT 9999 SCT110 QNH2978INS BECMG 2302/2303 02006KT 9999 FEW120 QNH2978INS TX40/2220Z TN27/2311Z
Issued Valid From Valid To
Jul-22 @ 18:26 UTC
(2 hours ago)
Jul-22 @ 18:00 UTC
(2 hours ago)
Jul-24 @ 00:00 UTC
(-1 days ago)
Expired Click to View Jul-22 @ 18:00 to Jul-22 @ 20:00
TAF AMD KBAD 221826Z 2218/2324 33009KT 9999 FEW140 QNH2979INS
Wind Visibility Clouds Readings
330° at 9 knots Greater than 6 miles
  • Few at 14,000' AGL
Altimeter 29.79" Hg
Pressure 1009 hPa
Becoming Jul-22 @ 20:00 to Jul-23 @ 02:00
BECMG 2220/2221 30009KT 9999 SCT110 QNH2978INS
Wind Visibility Clouds Readings
300° at 9 knots Greater than 6 miles
  • Scattered at 11,000' AGL
Altimeter 29.79" Hg
Pressure 1009 hPa
Becoming Jul-23 @ 02:00 to Jul-24 @ 00:00
BECMG 2302/2303 02006KT 9999 FEW120 QNH2978INS TX40/2220Z TN27/2311Z
Wind Visibility Clouds Readings
20° at 6 knots Greater than 6 miles
  • Few at 12,000' AGL
Altimeter 29.79" Hg
Pressure 1009 hPa
TAF AMD KBAD 221826Z 2218/2324 33009KT 9999 FEW140 QNH2979INS BECMG 2220/2221 30009KT 9999 SCT110 QNH2978INS BECMG 2302/2303 02006KT 9999 FEW120 QNH2978INS TX40/2220Z TN27/2311Z
Issued Jul-22 @ 18:26 UTC
(2 hours ago)
Valid From Jul-22 @ 18:00 UTC
(2 hours ago)
Valid To Jul-24 @ 00:00 UTC
(-1 days ago)
Jul-22 @ 18:00 - Jul-22 @ 20:00
Wind Visibility
330° at 9 knots Greater than 6 miles
Clouds
  • Few at 14,000' AGL
Becoming Jul-22 @ 20:00 - Jul-23 @ 02:00
Wind Visibility
300° at 9 knots Greater than 6 miles
Clouds
  • Scattered at 11,000' AGL
Becoming Jul-23 @ 02:00 - Jul-24 @ 00:00
Wind Visibility
20° at 6 knots Greater than 6 miles
Clouds
  • Few at 12,000' AGL